Home   Weather   Nepal   Biratnagar   Past weeks
Flag for Nepal

Past Weather in Biratnagar, Nepal — Yesterday and Last 2 Weeks

Currently: 43 °F. Fog. (Weather station: Kathmandu Airport, Nepal). See more current weather

Past Weather in Biratnagar — Graph

°F

Biratnagar Temperature Yesterday

Maximum temperature yesterday: 64 °F (at 1:35 pm)
Minimum temperature yesterday: 39 °F (at 7:35 am)
Average temperature yesterday: 50 °F

High & Low Weather Summary for the Past Weeks

 TemperatureHumidityPressure
High68 °F (Jan 10, 2:05 pm)100% (Jan 2, 4:35 am)30.27 "Hg (Jan 2, 4:35 am)
Low39 °F (Jan 2, 6:05 am)37% (Jan 3, 1:35 pm)30.01 "Hg (Jan 12, 4:05 pm)
Average52 °F79%30.13 "Hg
* Reported Jan 2 4:35 am — Jan 17 4:35 am, Biratnagar. Weather by CustomWeather, © 2022

Note: Actual official high and low records may vary slightly from our data, if they occured in-between our weather recording intervals... More about our weather records

Biratnagar Weather History for the Previous 24 Hours

Scroll right to see more
 ConditionsComfort  
Time TempWeatherWind HumidityBarometerVisibility
4:35 am
Mon, Jan 17
43 °FFog.2 mph100%30.18 "Hg2 mi
3:35 am43 °FFog.5 mph93%30.18 "Hg3 mi
3:05 am43 °FFog.3 mph100%30.18 "Hg3 mi
2:05 am45 °FFog.2 mph93%30.18 "Hg3 mi
1:35 am45 °FFog.No wind100%30.18 "Hg3 mi
1:05 am45 °FFog.No wind100%30.18 "Hg3 mi
12:35 am45 °FFog.5 mph93%30.18 "Hg3 mi
12:05 am45 °FFog.5 mph93%30.21 "Hg3 mi
11:35 pm
Sun, Jan 16
46 °FFog.2 mph93%30.21 "Hg3 mi
11:05 pm46 °FPassing clouds.No wind93%30.21 "Hg4 mi
10:35 pm46 °FPassing clouds.2 mph93%30.21 "Hg4 mi
10:05 pm48 °FPassing clouds.2 mph87%30.21 "Hg4 mi
9:35 pm48 °FPassing clouds.2 mph87%30.21 "Hg4 mi
9:05 pm50 °FPassing clouds.3 mph82%30.18 "Hg4 mi
8:05 pm50 °FPassing clouds.5 mph82%30.18 "Hg4 mi
7:35 pm52 °FPassing clouds.3 mph82%30.15 "Hg4 mi
7:05 pm52 °FPassing clouds.3 mph77%30.15 "Hg4 mi
6:35 pm52 °FPassing clouds.3 mph72%30.15 "Hg4 mi
6:05 pm54 °FPassing clouds.7 mph67%30.12 "Hg4 mi
5:35 pm55 °FPassing clouds.7 mph63%30.12 "Hg4 mi
5:05 pm57 °FPassing clouds.7 mph59%30.12 "Hg4 mi
4:35 pm59 °FPassing clouds.9 mph51%30.09 "Hg4 mi
3:05 pm64 °FPassing clouds.6 mph43%30.09 "Hg4 mi
2:35 pm64 °FPassing clouds.3 mph43%30.12 "Hg4 mi
2:05 pm64 °FPassing clouds.2 mph40%30.12 "Hg4 mi
1:35 pm64 °FPassing clouds.3 mph40%30.15 "Hg4 mi
1:05 pm63 °FPassing clouds.3 mph42%30.15 "Hg4 mi
12:35 pm63 °FPassing clouds.2 mph45%30.15 "Hg4 mi
11:35 am57 °FHaze.5 mph67%30.18 "Hg2 mi
11:05 am57 °FHaze.2 mph63%30.21 "Hg2 mi
10:35 am54 °FFog.2 mph72%30.24 "Hg1 mi
10:05 am52 °FFog.2 mph77%30.24 "Hg1 mi
9:35 am50 °FFog.2 mph82%30.24 "Hg1 mi
9:05 am48 °FFog.2 mph87%30.24 "Hg1 mi
8:35 am45 °FFog.No wind100%30.21 "Hg1 mi
8:05 am43 °FFog.2 mph100%30.21 "Hg1 mi
7:35 am39 °FFog.3 mph100%30.18 "Hg1 mi
7:05 am41 °FFog.3 mph100%30.15 "Hg1 mi
6:35 am41 °FFog.3 mph100%30.15 "Hg2 mi
6:05 am41 °FFog.No wind93%30.12 "Hg2 mi
Weather by CustomWeather, © 2022

See weather overview